createdAt,value
2018-11-25T00:01:57.056Z,6.30
2018-11-25T00:04:25.387Z,6.30
2018-11-25T00:06:53.732Z,6.30
2018-11-25T00:09:22.022Z,6.30
2018-11-25T00:11:50.346Z,6.40
2018-11-25T00:14:18.668Z,6.40
2018-11-25T00:16:47.022Z,6.40
2018-11-25T00:19:16.848Z,6.50
2018-11-25T00:21:45.159Z,6.50
2018-11-25T00:24:13.465Z,6.50
2018-11-25T00:26:41.783Z,6.50
2018-11-25T00:29:10.416Z,6.50
2018-11-25T00:31:38.752Z,6.50
2018-11-25T00:34:07.737Z,6.40
2018-11-25T00:36:36.091Z,6.40
2018-11-25T00:39:06.651Z,6.30
2018-11-25T00:41:34.969Z,6.40
2018-11-25T00:44:03.326Z,6.30
2018-11-25T00:46:31.706Z,6.30
2018-11-25T00:49:00.053Z,6.40
2018-11-25T00:51:28.412Z,6.40
2018-11-25T00:53:56.707Z,6.40
2018-11-25T00:56:24.978Z,6.50
2018-11-25T00:58:53.283Z,6.50
2018-11-25T01:01:21.609Z,6.50
2018-11-25T01:03:49.889Z,6.50
2018-11-25T01:06:18.225Z,6.50
2018-11-25T01:08:46.565Z,6.50
2018-11-25T01:11:15.552Z,6.50
2018-11-25T01:13:43.881Z,6.40
2018-11-25T01:16:12.177Z,6.40
2018-11-25T01:18:40.501Z,6.40
2018-11-25T01:21:10.811Z,6.40
2018-11-25T01:23:39.129Z,6.40
2018-11-25T01:26:07.445Z,6.40
2018-11-25T01:28:35.812Z,6.30
2018-11-25T01:31:04.203Z,6.40
2018-11-25T01:33:32.558Z,6.30
2018-11-25T01:36:00.845Z,6.30
2018-11-25T01:38:29.163Z,6.30
2018-11-25T01:40:57.465Z,6.30
2018-11-25T01:43:25.763Z,6.40
2018-11-25T01:45:54.054Z,6.40
2018-11-25T01:48:22.365Z,6.30
2018-11-25T01:50:50.665Z,6.30
2018-11-25T01:53:18.949Z,6.30
2018-11-25T01:55:47.313Z,6.30
2018-11-25T01:58:15.645Z,6.20
2018-11-25T02:00:43.949Z,6.20
2018-11-25T02:03:12.228Z,6.00
2018-11-25T02:05:40.553Z,5.90
2018-11-25T02:08:08.851Z,5.80
2018-11-25T02:10:37.175Z,5.70
2018-11-25T02:13:05.499Z,5.60
2018-11-25T02:15:33.797Z,5.60
2018-11-25T02:18:02.125Z,5.50
2018-11-25T02:20:30.464Z,5.50
2018-11-25T02:22:58.777Z,5.40
2018-11-25T02:25:27.076Z,5.40
2018-11-25T02:27:55.403Z,5.40
2018-11-25T02:30:23.763Z,5.30
2018-11-25T02:32:52.069Z,5.30
2018-11-25T02:35:20.390Z,5.20
2018-11-25T02:37:48.693Z,5.10
2018-11-25T02:40:17.449Z,5.10
2018-11-25T02:42:45.783Z,5.00
2018-11-25T02:45:17.827Z,5.00
2018-11-25T02:47:46.154Z,5.00
2018-11-25T02:50:23.721Z,4.90
2018-11-25T02:52:52.158Z,4.90
2018-11-25T02:55:23.213Z,4.90
2018-11-25T02:57:51.566Z,4.80
2018-11-25T03:00:19.922Z,4.80
2018-11-25T03:02:48.289Z,4.70
2018-11-25T03:05:16.629Z,4.60
2018-11-25T03:07:44.980Z,4.50
2018-11-25T03:10:13.364Z,4.40
2018-11-25T03:12:41.680Z,4.40
2018-11-25T03:15:12.223Z,4.40
2018-11-25T03:17:40.572Z,4.40
2018-11-25T03:20:13.177Z,4.50
2018-11-25T03:22:41.466Z,4.50
2018-11-25T03:25:12.929Z,4.50
2018-11-25T03:27:41.248Z,4.60
2018-11-25T03:30:11.828Z,4.70
2018-11-25T03:32:40.233Z,4.70
2018-11-25T03:35:09.837Z,4.70
2018-11-25T03:37:38.135Z,4.80
2018-11-25T03:40:09.403Z,4.80
2018-11-25T03:42:37.743Z,4.90
2018-11-25T03:45:10.411Z,5.00
2018-11-25T03:47:38.733Z,5.00
2018-11-25T03:50:08.121Z,5.10
2018-11-25T03:52:36.450Z,5.10
2018-11-25T03:55:06.623Z,5.20
2018-11-25T03:57:34.928Z,5.30
2018-11-25T04:00:03.336Z,5.30
2018-11-25T04:02:31.646Z,5.30
2018-11-25T04:04:59.968Z,5.40
2018-11-25T04:07:28.283Z,5.40
2018-11-25T04:09:56.568Z,5.40
2018-11-25T04:12:25.394Z,5.40
2018-11-25T04:14:53.706Z,5.40
2018-11-25T04:17:21.999Z,5.40
2018-11-25T04:19:50.338Z,5.40
2018-11-25T04:22:18.674Z,5.40
2018-11-25T04:24:46.986Z,5.40
2018-11-25T04:27:15.275Z,5.50
2018-11-25T04:29:43.556Z,5.50
2018-11-25T04:32:11.860Z,5.50
2018-11-25T04:34:40.180Z,5.50
2018-11-25T04:37:08.482Z,5.50
2018-11-25T04:39:36.778Z,5.50
2018-11-25T04:42:05.195Z,5.50
2018-11-25T04:44:33.541Z,5.50
2018-11-25T04:47:01.830Z,5.50
2018-11-25T04:49:30.120Z,5.50
2018-11-25T04:51:58.415Z,5.50
2018-11-25T04:54:26.702Z,5.40
2018-11-25T04:56:55.019Z,5.30
2018-11-25T04:59:23.323Z,5.30
2018-11-25T05:01:51.640Z,5.20
2018-11-25T05:04:19.966Z,5.10
2018-11-25T05:06:48.274Z,5.10
2018-11-25T05:09:16.594Z,5.10
2018-11-25T05:11:44.874Z,5.00
2018-11-25T05:14:13.166Z,5.00
2018-11-25T05:16:41.476Z,5.00
2018-11-25T05:19:09.789Z,5.00
2018-11-25T05:21:38.091Z,4.90
2018-11-25T05:24:06.417Z,4.90
2018-11-25T05:26:34.715Z,4.90
2018-11-25T05:29:03.016Z,4.90
2018-11-25T05:31:31.338Z,4.90
2018-11-25T05:33:59.639Z,4.90
2018-11-25T05:36:27.976Z,4.90
2018-11-25T05:38:56.261Z,5.00
2018-11-25T05:41:24.550Z,5.00
2018-11-25T05:43:52.843Z,5.00
2018-11-25T05:46:21.152Z,5.00
2018-11-25T05:48:49.454Z,5.10
2018-11-25T05:51:17.767Z,5.10
2018-11-25T05:53:46.079Z,5.20
2018-11-25T05:56:14.448Z,5.20
2018-11-25T05:58:42.779Z,5.20
2018-11-25T06:01:11.094Z,5.10
2018-11-25T06:03:39.404Z,5.20
2018-11-25T06:06:07.698Z,5.20
2018-11-25T06:08:36.013Z,5.20
2018-11-25T06:11:04.342Z,5.20
2018-11-25T06:13:32.668Z,5.20
2018-11-25T06:16:00.967Z,5.10
2018-11-25T06:18:29.281Z,5.10
2018-11-25T06:20:57.596Z,5.10
2018-11-25T06:23:25.902Z,5.10
2018-11-25T06:25:54.213Z,5.10
2018-11-25T06:28:22.522Z,5.00
2018-11-25T06:30:50.834Z,5.00
2018-11-25T06:33:19.121Z,5.10
2018-11-25T06:35:47.442Z,5.10
2018-11-25T06:38:15.757Z,5.10
2018-11-25T06:40:44.062Z,5.10
2018-11-25T06:43:12.410Z,5.10
2018-11-25T06:45:40.790Z,5.20
2018-11-25T06:48:09.131Z,5.10
2018-11-25T06:50:37.424Z,5.10
2018-11-25T06:53:05.786Z,5.10
2018-11-25T06:55:34.096Z,5.10
2018-11-25T06:58:02.409Z,5.10
2018-11-25T07:00:30.700Z,5.10
2018-11-25T07:02:59.017Z,5.10
2018-11-25T07:05:27.339Z,5.20
2018-11-25T07:07:55.664Z,5.10
2018-11-25T07:10:24.016Z,5.10
2018-11-25T07:12:53.407Z,5.20
2018-11-25T07:15:21.722Z,5.20
2018-11-25T07:17:50.309Z,5.30
2018-11-25T07:20:19.171Z,5.30
2018-11-25T07:22:47.468Z,5.30
2018-11-25T07:25:16.735Z,5.30
2018-11-25T07:27:45.059Z,5.30
2018-11-25T07:30:15.452Z,5.30
2018-11-25T07:32:43.769Z,5.30
2018-11-25T07:35:12.112Z,5.30
2018-11-25T07:37:40.418Z,5.30
2018-11-25T07:40:11.962Z,5.30
2018-11-25T07:42:41.520Z,5.30
2018-11-25T07:45:12.047Z,5.30
2018-11-25T07:47:40.375Z,5.20
2018-11-25T07:50:11.024Z,5.20
2018-11-25T07:52:39.448Z,5.30
2018-11-25T07:55:10.250Z,5.30
2018-11-25T07:57:38.756Z,5.30
2018-11-25T08:00:14.491Z,5.30
2018-11-25T08:02:42.801Z,5.40
2018-11-25T08:05:12.331Z,5.40
2018-11-25T08:07:40.664Z,5.50
2018-11-25T08:10:12.060Z,5.50
2018-11-25T08:12:40.404Z,5.60
2018-11-25T08:15:10.871Z,5.60
2018-11-25T08:17:39.545Z,5.70
2018-11-25T08:20:09.978Z,5.70
2018-11-25T08:22:38.292Z,5.70
2018-11-25T08:25:09.226Z,5.80
2018-11-25T08:27:37.578Z,5.80
2018-11-25T08:30:09.994Z,5.80
2018-11-25T08:32:38.325Z,5.80
2018-11-25T08:35:07.495Z,5.80
2018-11-25T08:37:35.804Z,5.80
2018-11-25T08:40:05.579Z,5.80
2018-11-25T08:42:33.900Z,5.80
2018-11-25T08:45:02.230Z,5.90
2018-11-25T08:47:30.528Z,5.90
2018-11-25T08:49:58.850Z,5.90
2018-11-25T08:52:27.187Z,6.00
2018-11-25T08:54:55.515Z,6.00
2018-11-25T08:57:24.971Z,6.00
2018-11-25T08:59:52.161Z,6.00
2018-11-25T09:02:20.522Z,6.10
2018-11-25T09:04:48.860Z,6.10
2018-11-25T09:07:17.219Z,6.20
2018-11-25T09:09:45.573Z,6.10
2018-11-25T09:12:13.890Z,6.20
2018-11-25T09:14:42.205Z,6.20
2018-11-25T09:17:10.516Z,6.20
2018-11-25T09:19:38.873Z,6.30
2018-11-25T09:22:07.201Z,6.40
2018-11-25T09:24:35.550Z,6.40
2018-11-25T09:27:03.921Z,6.50
2018-11-25T09:29:32.262Z,6.50
2018-11-25T09:32:00.589Z,6.60
2018-11-25T09:34:28.928Z,6.60
2018-11-25T09:36:57.268Z,6.70
2018-11-25T09:39:25.622Z,6.80
2018-11-25T09:41:53.971Z,6.80
2018-11-25T09:44:22.347Z,6.90
2018-11-25T09:46:50.654Z,7.00
2018-11-25T09:49:19.010Z,7.00
2018-11-25T09:51:47.321Z,7.10
2018-11-25T09:54:15.623Z,7.10
2018-11-25T09:56:43.986Z,7.10
2018-11-25T09:59:12.344Z,7.10
2018-11-25T10:01:40.699Z,7.10
2018-11-25T10:04:09.015Z,7.10
2018-11-25T10:06:37.327Z,7.10
2018-11-25T10:09:08.549Z,7.10
2018-11-25T10:11:36.934Z,7.10
2018-11-25T10:14:05.615Z,7.10
2018-11-25T10:16:33.932Z,7.10
2018-11-25T10:19:02.258Z,7.10
2018-11-25T10:21:30.566Z,7.10
2018-11-25T10:23:58.879Z,7.20
2018-11-25T10:26:27.200Z,7.20
2018-11-25T10:28:55.547Z,7.30
2018-11-25T10:31:23.841Z,7.40
2018-11-25T10:33:52.199Z,7.50
2018-11-25T10:36:20.492Z,7.60
2018-11-25T10:38:48.790Z,7.70
2018-11-25T10:41:17.092Z,7.70
2018-11-25T10:43:46.482Z,7.70
2018-11-25T10:46:14.825Z,7.80
2018-11-25T10:48:44.405Z,7.80
2018-11-25T10:51:12.754Z,7.80
2018-11-25T10:53:42.513Z,7.80
2018-11-25T10:56:10.898Z,7.80
2018-11-25T10:58:39.243Z,7.80
2018-11-25T11:01:12.983Z,7.80
2018-11-25T11:03:46.789Z,7.80
2018-11-25T11:06:20.605Z,7.80
2018-11-25T11:08:48.921Z,7.80
2018-11-25T11:11:17.295Z,7.80
2018-11-25T11:13:45.617Z,7.90
2018-11-25T11:16:13.923Z,7.90
2018-11-25T11:18:42.248Z,7.90
2018-11-25T11:21:10.591Z,8.00
2018-11-25T11:23:38.944Z,8.00
2018-11-25T11:26:24.248Z,8.00
2018-11-25T11:28:52.577Z,8.10
2018-11-25T11:31:21.250Z,8.10
2018-11-25T11:33:49.583Z,8.10
2018-11-25T11:36:17.932Z,8.10
2018-11-25T11:38:46.277Z,8.10
2018-11-25T11:41:14.681Z,8.10
2018-11-25T11:43:43.010Z,8.10
2018-11-25T11:46:11.314Z,8.00
2018-11-25T11:48:39.647Z,8.00
2018-11-25T11:51:07.987Z,7.90
2018-11-25T11:53:36.316Z,7.90
2018-11-25T11:56:04.800Z,7.90
2018-11-25T11:58:33.166Z,7.90
2018-11-25T12:01:01.503Z,7.90
2018-11-25T12:03:29.865Z,8.00
2018-11-25T12:05:58.235Z,8.00
2018-11-25T12:08:26.559Z,8.00
2018-11-25T12:10:54.900Z,8.00
2018-11-25T12:13:23.239Z,8.10
2018-11-25T12:15:51.565Z,8.10
2018-11-25T12:18:20.558Z,8.10
2018-11-25T12:20:48.927Z,8.10
2018-11-25T12:23:17.239Z,8.10
2018-11-25T12:25:45.573Z,8.10
2018-11-25T12:28:13.935Z,8.00
2018-11-25T12:30:42.292Z,8.00
2018-11-25T12:33:10.616Z,8.00
2018-11-25T12:35:38.966Z,8.00
2018-11-25T12:38:07.362Z,8.00
2018-11-25T12:40:35.735Z,8.00
2018-11-25T12:43:04.102Z,7.90
2018-11-25T12:45:32.796Z,7.90
2018-11-25T12:48:01.123Z,7.90
2018-11-25T12:50:29.483Z,7.80
2018-11-25T12:52:57.931Z,7.80
2018-11-25T12:55:27.187Z,7.80
2018-11-25T12:57:56.457Z,7.80
2018-11-25T13:00:44.604Z,7.70
2018-11-25T13:03:13.605Z,7.70
2018-11-25T13:05:46.282Z,7.70
2018-11-25T13:08:11.569Z,7.60
2018-11-25T13:10:40.237Z,7.70
2018-11-25T13:13:10.123Z,7.60
2018-11-25T13:15:38.778Z,7.60
2018-11-25T13:18:08.500Z,7.60
2018-11-25T13:20:37.167Z,7.60
2018-11-25T13:23:06.086Z,7.60
2018-11-25T13:25:34.734Z,7.50
2018-11-25T13:28:03.431Z,7.50
2018-11-25T13:30:32.727Z,7.40
2018-11-25T13:33:02.416Z,7.40
2018-11-25T13:35:34.512Z,7.40
2018-11-25T13:38:03.196Z,7.40
2018-11-25T13:40:31.874Z,7.40
2018-11-25T13:43:00.590Z,7.30
2018-11-25T13:45:29.283Z,7.30
2018-11-25T13:47:57.732Z,7.30
2018-11-25T13:50:26.361Z,7.20
2018-11-25T13:52:54.752Z,7.30
2018-11-25T13:55:24.933Z,7.20
2018-11-25T13:57:53.619Z,7.20
2018-11-25T14:00:34.591Z,7.20
2018-11-25T14:03:02.243Z,7.30
2018-11-25T14:05:30.853Z,7.20
2018-11-25T14:07:59.173Z,7.20
2018-11-25T14:10:29.481Z,7.10
2018-11-25T14:12:57.883Z,7.10
2018-11-25T14:15:26.661Z,7.10
2018-11-25T14:17:55.104Z,7.20
2018-11-25T14:20:23.510Z,7.20
2018-11-25T14:22:51.877Z,7.10
2018-11-25T14:25:21.413Z,7.10
2018-11-25T14:27:52.858Z,7.00
2018-11-25T14:30:24.103Z,7.00
2018-11-25T14:32:52.519Z,7.00
2018-11-25T14:35:20.919Z,7.00
2018-11-25T14:37:49.455Z,6.90
2018-11-25T14:40:19.026Z,7.00
2018-11-25T14:42:47.419Z,6.90
2018-11-25T14:45:17.257Z,6.90
2018-11-25T14:47:45.691Z,6.90
2018-11-25T14:50:17.221Z,6.90
2018-11-25T14:52:46.874Z,6.80
2018-11-25T14:55:15.910Z,6.80
2018-11-25T14:57:44.362Z,6.80
2018-11-25T15:00:16.033Z,6.80
2018-11-25T15:02:45.967Z,6.80
2018-11-25T15:05:34.661Z,6.80
2018-11-25T15:08:03.052Z,6.80
2018-11-25T15:10:32.111Z,6.80
2018-11-25T15:13:00.566Z,6.70
2018-11-25T15:15:28.982Z,6.70
2018-11-25T15:17:57.425Z,6.70
2018-11-25T15:20:26.572Z,6.70
2018-11-25T15:22:56.886Z,6.70
2018-11-25T15:25:29.148Z,6.70
2018-11-25T15:27:58.235Z,6.70
2018-11-25T15:30:26.055Z,6.60
2018-11-25T15:32:54.479Z,6.60
2018-11-25T15:35:23.588Z,6.60
2018-11-25T15:37:53.141Z,6.50
2018-11-25T15:40:26.948Z,6.50
2018-11-25T15:42:55.365Z,6.50
2018-11-25T15:45:23.792Z,6.50
2018-11-25T15:48:04.771Z,6.50
2018-11-25T15:50:33.182Z,6.40
2018-11-25T15:53:01.602Z,6.40
2018-11-25T15:55:30.012Z,6.40
2018-11-25T15:57:58.436Z,6.40
2018-11-25T16:00:26.856Z,6.40
2018-11-25T16:02:55.294Z,6.30
2018-11-25T16:05:27.013Z,6.40
2018-11-25T16:07:55.537Z,6.30
2018-11-25T16:10:23.949Z,6.30
2018-11-25T16:12:52.777Z,6.30
2018-11-25T16:15:23.535Z,6.30
2018-11-25T16:17:52.232Z,6.30
2018-11-25T16:20:23.787Z,6.20
2018-11-25T16:22:53.809Z,6.30
2018-11-25T16:25:26.588Z,6.20
2018-11-25T16:27:58.449Z,6.20
2018-11-25T16:30:27.201Z,6.20
2018-11-25T16:32:55.644Z,6.20
2018-11-25T16:35:24.048Z,6.20
2018-11-25T16:37:58.789Z,6.20
2018-11-25T16:40:27.157Z,6.20
2018-11-25T16:42:55.733Z,6.20
2018-11-25T16:45:24.105Z,6.20
2018-11-25T16:47:52.513Z,6.20
2018-11-25T16:50:25.229Z,6.20
2018-11-25T16:52:49.377Z,6.20
2018-11-25T16:55:17.772Z,6.20
2018-11-25T16:57:46.186Z,6.20
2018-11-25T17:00:19.444Z,6.20
2018-11-25T17:02:47.911Z,6.20
2018-11-25T17:05:17.831Z,6.20
2018-11-25T17:07:47.530Z,6.20
2018-11-25T17:10:15.985Z,6.20
2018-11-25T17:12:44.473Z,6.20
2018-11-25T17:15:19.685Z,6.20
2018-11-25T17:17:49.008Z,6.20
2018-11-25T17:20:18.407Z,6.20
2018-11-25T17:22:46.861Z,6.20
2018-11-25T17:25:15.347Z,6.20
2018-11-25T17:27:43.990Z,6.30
2018-11-25T17:30:15.095Z,6.20
2018-11-25T17:32:44.236Z,6.20
2018-11-25T17:35:23.040Z,6.20
2018-11-25T17:37:51.766Z,6.30
2018-11-25T17:40:20.252Z,6.20
2018-11-25T17:42:49.011Z,6.30
2018-11-25T17:45:17.465Z,6.20
2018-11-25T17:47:46.471Z,6.30
2018-11-25T17:50:19.460Z,6.30
2018-11-25T17:52:48.733Z,6.30
2018-11-25T17:55:17.906Z,6.30
2018-11-25T17:57:46.325Z,6.40
2018-11-25T18:00:21.476Z,6.40
2018-11-25T18:02:49.974Z,6.40
2018-11-25T18:05:18.419Z,6.40
2018-11-25T18:07:46.904Z,6.40
2018-11-25T18:10:15.439Z,6.30
2018-11-25T18:12:44.250Z,6.30
2018-11-25T18:15:16.165Z,6.30
2018-11-25T18:17:48.389Z,6.30
2018-11-25T18:20:16.824Z,6.30
2018-11-25T18:22:47.268Z,6.30
2018-11-25T18:25:15.767Z,6.20
2018-11-25T18:27:44.297Z,6.20
2018-11-25T18:30:14.536Z,6.20
2018-11-25T18:32:43.675Z,6.30
2018-11-25T18:35:12.380Z,6.20
2018-11-25T18:37:41.988Z,6.20
2018-11-25T18:40:12.832Z,6.30
2018-11-25T18:42:42.126Z,6.30
2018-11-25T18:45:12.772Z,6.30
2018-11-25T18:47:41.943Z,6.30
2018-11-25T18:50:12.020Z,6.30
2018-11-25T18:52:41.748Z,6.30
2018-11-25T18:55:10.026Z,6.30
2018-11-25T18:57:39.400Z,6.40
2018-11-25T19:01:12.523Z,6.40
2018-11-25T19:03:41.745Z,6.40
2018-11-25T19:06:10.296Z,6.40
2018-11-25T19:08:39.226Z,6.40
2018-11-25T19:11:09.783Z,6.40
2018-11-25T19:13:38.692Z,6.30
2018-11-25T19:16:07.376Z,6.30
2018-11-25T19:18:36.179Z,6.30
2018-11-25T19:21:04.678Z,6.30
2018-11-25T19:23:33.241Z,6.20
2018-11-25T19:26:01.742Z,6.30
2018-11-25T19:28:31.648Z,6.30
2018-11-25T19:31:00.419Z,6.20
2018-11-25T19:33:29.861Z,6.30
2018-11-25T19:35:58.655Z,6.30
2018-11-25T19:38:27.931Z,6.30
2018-11-25T19:40:56.682Z,6.30
2018-11-25T19:43:26.955Z,6.30
2018-11-25T19:45:56.540Z,6.30
2018-11-25T19:48:25.820Z,6.30
2018-11-25T19:50:54.721Z,6.30
2018-11-25T19:53:24.305Z,6.30
2018-11-25T19:55:53.573Z,6.30
2018-11-25T19:58:23.957Z,6.30
2018-11-25T20:00:54.310Z,6.30
2018-11-25T20:03:23.188Z,6.40
2018-11-25T20:05:51.660Z,6.40
2018-11-25T20:08:20.676Z,6.40
2018-11-25T20:10:49.199Z,6.30
2018-11-25T20:13:18.007Z,6.30
2018-11-25T20:15:46.519Z,6.30
2018-11-25T20:18:15.140Z,6.30
2018-11-25T20:20:48.719Z,6.30
2018-11-25T20:23:18.302Z,6.30
2018-11-25T20:25:47.499Z,6.30
2018-11-25T20:28:16.086Z,6.30
2018-11-25T20:30:44.648Z,6.30
2018-11-25T20:33:52.388Z,6.30
2018-11-25T20:36:19.651Z,6.30
2018-11-25T20:38:54.291Z,6.20
2018-11-25T20:41:22.766Z,6.30
2018-11-25T20:43:52.125Z,6.20
2018-11-25T20:46:26.211Z,6.20
2018-11-25T20:48:54.806Z,6.20
2018-11-25T20:51:30.207Z,6.10
2018-11-25T20:54:00.428Z,6.20
2018-11-25T20:56:30.224Z,6.10
2018-11-25T20:58:59.346Z,6.10
2018-11-25T21:01:28.938Z,6.10
2018-11-25T21:03:58.084Z,6.10
2018-11-25T21:06:27.565Z,6.10
2018-11-25T21:08:56.064Z,6.10
2018-11-25T21:11:24.576Z,6.10
2018-11-25T21:13:53.059Z,6.10
2018-11-25T21:16:21.825Z,6.10
2018-11-25T21:18:50.930Z,6.10
2018-11-25T21:21:19.376Z,6.10
2018-11-25T21:23:47.816Z,6.10
2018-11-25T21:26:16.270Z,6.10
2018-11-25T21:28:44.751Z,6.10
2018-11-25T21:31:13.303Z,6.00
2018-11-25T21:33:41.713Z,6.00
2018-11-25T21:36:11.337Z,6.00
2018-11-25T21:38:39.775Z,6.10
2018-11-25T21:41:08.195Z,6.00
2018-11-25T21:43:36.945Z,6.00
2018-11-25T21:46:05.579Z,6.10
2018-11-25T21:48:33.977Z,6.00
2018-11-25T21:51:02.382Z,6.00
2018-11-25T21:53:30.788Z,6.00
2018-11-25T21:55:59.169Z,6.00
2018-11-25T21:58:28.843Z,6.00
2018-11-25T22:00:55.968Z,6.00
2018-11-25T22:03:25.152Z,6.00
2018-11-25T22:05:54.735Z,6.00
2018-11-25T22:08:23.088Z,5.90
2018-11-25T22:10:51.410Z,5.90
2018-11-25T22:13:19.757Z,5.90
2018-11-25T22:15:48.077Z,5.90
2018-11-25T22:18:16.428Z,5.90
2018-11-25T22:20:44.897Z,5.80
2018-11-25T22:23:15.025Z,5.90
2018-11-25T22:25:43.392Z,5.80
2018-11-25T22:28:11.749Z,5.80
2018-11-25T22:30:40.050Z,5.90
2018-11-25T22:33:08.391Z,5.80
2018-11-25T22:35:37.083Z,5.80
2018-11-25T22:38:05.667Z,5.80
2018-11-25T22:40:34.004Z,5.80
2018-11-25T22:43:02.324Z,5.90
2018-11-25T22:45:30.638Z,5.80
2018-11-25T22:47:58.930Z,5.80
2018-11-25T22:50:27.787Z,5.80
2018-11-25T22:52:55.727Z,5.80
2018-11-25T22:55:25.339Z,5.80
2018-11-25T22:57:53.688Z,5.90
2018-11-25T23:00:30.658Z,5.90
2018-11-25T23:02:58.940Z,5.80
2018-11-25T23:05:38.623Z,5.90
2018-11-25T23:08:06.928Z,5.80
2018-11-25T23:10:35.382Z,5.80
2018-11-25T23:13:03.742Z,5.80
2018-11-25T23:15:32.090Z,5.80
2018-11-25T23:18:00.410Z,5.80
2018-11-25T23:20:29.498Z,5.80
2018-11-25T23:22:57.803Z,5.80
2018-11-25T23:25:26.094Z,5.80
2018-11-25T23:27:54.439Z,5.80
2018-11-25T23:30:22.775Z,5.80
2018-11-25T23:32:51.111Z,5.70
2018-11-25T23:35:20.795Z,5.70
2018-11-25T23:37:49.104Z,5.70
2018-11-25T23:40:17.417Z,5.70
2018-11-25T23:42:45.780Z,5.70
2018-11-25T23:45:15.315Z,5.70
2018-11-25T23:47:43.704Z,5.70
2018-11-25T23:50:12.772Z,5.70
2018-11-25T23:52:41.743Z,5.70
2018-11-25T23:55:11.233Z,5.70
2018-11-25T23:57:39.971Z,5.70
